createdAt,value
2019-03-13T00:01:39.098Z,2.34
2019-03-13T00:04:13.390Z,2.38
2019-03-13T00:06:54.031Z,2.42
2019-03-13T00:09:28.495Z,2.38
2019-03-13T00:12:02.795Z,2.35
2019-03-13T00:14:36.748Z,2.41
2019-03-13T00:17:12.867Z,2.42
2019-03-13T00:19:55.628Z,2.38
2019-03-13T00:22:32.419Z,2.44
2019-03-13T00:25:09.000Z,2.38
2019-03-13T00:27:41.352Z,2.46
2019-03-13T00:30:15.944Z,2.46
2019-03-13T00:32:49.849Z,2.42
2019-03-13T00:35:23.961Z,2.47
2019-03-13T00:37:57.869Z,2.40
2019-03-13T00:40:32.451Z,2.35
2019-03-13T00:43:08.091Z,2.38
2019-03-13T00:45:40.546Z,2.32
2019-03-13T00:48:14.712Z,2.42
2019-03-13T00:50:49.188Z,2.42
2019-03-13T00:53:23.864Z,2.38
2019-03-13T00:55:58.226Z,2.35
2019-03-13T00:58:32.284Z,2.44
2019-03-13T01:01:16.814Z,2.34
2019-03-13T01:04:02.332Z,2.40
2019-03-13T01:06:45.562Z,2.31
2019-03-13T01:09:19.667Z,2.28
2019-03-13T01:11:54.341Z,2.25
2019-03-13T01:14:28.936Z,2.18
2019-03-13T01:17:03.291Z,2.17
2019-03-13T01:19:35.606Z,2.17
2019-03-13T01:22:17.426Z,2.19
2019-03-13T01:24:52.231Z,2.13
2019-03-13T01:27:27.342Z,2.13
2019-03-13T01:30:01.862Z,2.17
2019-03-13T01:32:56.414Z,2.16
2019-03-13T01:35:50.815Z,2.19
2019-03-13T01:38:25.860Z,2.21
2019-03-13T01:40:59.881Z,2.22
2019-03-13T01:43:33.681Z,2.29
2019-03-13T01:46:07.027Z,2.30
2019-03-13T01:48:41.547Z,2.28
2019-03-13T01:51:16.053Z,2.32
2019-03-13T01:53:51.589Z,2.30
2019-03-13T01:56:26.741Z,2.26
2019-03-13T01:59:00.995Z,2.27
2019-03-13T02:01:33.288Z,2.26
2019-03-13T02:04:07.077Z,2.29
2019-03-13T02:06:40.957Z,2.25
2019-03-13T02:09:13.287Z,2.28
2019-03-13T02:11:47.673Z,2.26
2019-03-13T02:14:21.887Z,2.25
2019-03-13T02:16:56.399Z,2.20
2019-03-13T02:19:31.803Z,2.19
2019-03-13T02:22:07.302Z,2.26
2019-03-13T02:24:42.858Z,2.15
2019-03-13T02:27:17.511Z,2.13
2019-03-13T02:29:52.038Z,2.12
2019-03-13T02:32:44.498Z,2.10
2019-03-13T02:35:18.779Z,2.22
2019-03-13T02:37:53.267Z,2.20
2019-03-13T02:40:29.893Z,2.13
2019-03-13T02:43:05.019Z,2.18
2019-03-13T02:45:40.138Z,2.12
2019-03-13T02:48:13.574Z,2.17
2019-03-13T02:50:47.528Z,2.09
2019-03-13T02:53:21.302Z,2.09
2019-03-13T02:55:56.825Z,2.06
2019-03-13T02:58:31.528Z,1.96
2019-03-13T03:01:24.934Z,2.05
2019-03-13T03:03:59.988Z,2.10
2019-03-13T03:06:34.084Z,2.02
2019-03-13T03:09:10.054Z,2.06
2019-03-13T03:11:45.567Z,2.07
2019-03-13T03:14:19.876Z,2.14
2019-03-13T03:16:54.213Z,2.13
2019-03-13T03:19:27.949Z,2.11
2019-03-13T03:22:02.806Z,2.11
2019-03-13T03:24:37.214Z,2.11
2019-03-13T03:27:11.487Z,2.07
2019-03-13T03:29:45.757Z,2.09
2019-03-13T03:32:19.752Z,2.08
2019-03-13T03:34:53.684Z,2.09
2019-03-13T03:37:28.415Z,2.05
2019-03-13T03:40:02.815Z,2.00
2019-03-13T03:42:37.628Z,1.99
2019-03-13T03:45:12.375Z,1.94
2019-03-13T03:47:45.455Z,1.93
2019-03-13T03:50:20.202Z,1.98
2019-03-13T03:52:55.547Z,1.93
2019-03-13T03:55:30.582Z,1.96
2019-03-13T03:58:07.106Z,1.92
2019-03-13T04:00:41.844Z,1.84
2019-03-13T04:03:17.318Z,1.82
2019-03-13T04:05:51.980Z,1.75
2019-03-13T04:08:26.427Z,1.74
2019-03-13T04:11:01.665Z,1.77
2019-03-13T04:13:34.281Z,1.77
2019-03-13T04:16:07.606Z,1.73
2019-03-13T04:18:42.269Z,1.72
2019-03-13T04:21:16.714Z,1.62
2019-03-13T04:23:51.148Z,1.49
2019-03-13T04:26:25.574Z,1.44
2019-03-13T04:28:59.599Z,1.49
2019-03-13T04:31:33.121Z,1.51
2019-03-13T04:34:07.645Z,1.56
2019-03-13T04:36:41.771Z,1.62
2019-03-13T04:39:16.532Z,1.62
2019-03-13T04:41:50.965Z,1.47
2019-03-13T04:44:25.572Z,1.47
2019-03-13T04:46:59.852Z,1.51
2019-03-13T04:49:34.518Z,1.42
2019-03-13T04:52:09.162Z,1.47
2019-03-13T04:54:43.375Z,1.45
2019-03-13T04:57:15.638Z,1.51
2019-03-13T04:59:50.676Z,1.58
2019-03-13T05:02:24.682Z,1.55
2019-03-13T05:04:59.310Z,1.59
2019-03-13T05:07:35.034Z,1.60
2019-03-13T05:10:10.006Z,1.67
2019-03-13T05:12:42.400Z,1.66
2019-03-13T05:15:16.524Z,1.77
2019-03-13T05:17:50.050Z,1.80
2019-03-13T05:20:24.500Z,1.74
2019-03-13T05:22:58.196Z,1.86
2019-03-13T05:25:32.115Z,1.82
2019-03-13T05:28:07.148Z,1.83
2019-03-13T05:30:41.686Z,1.98
2019-03-13T05:33:16.042Z,2.05
2019-03-13T05:35:50.236Z,2.04
2019-03-13T05:38:24.622Z,2.14
2019-03-13T05:40:59.661Z,2.23
2019-03-13T05:43:34.012Z,2.33
2019-03-13T05:46:08.207Z,2.41
2019-03-13T05:48:41.766Z,2.46
2019-03-13T05:51:16.333Z,2.58
2019-03-13T05:53:50.257Z,2.67
2019-03-13T05:56:25.902Z,2.79
2019-03-13T05:59:01.224Z,2.89
2019-03-13T06:01:34.777Z,2.88
2019-03-13T06:04:09.844Z,2.90
2019-03-13T06:06:44.432Z,2.94
2019-03-13T06:09:20.151Z,3.05
2019-03-13T06:11:54.456Z,3.21
2019-03-13T06:14:28.766Z,3.23
2019-03-13T06:17:02.931Z,3.30
2019-03-13T06:19:35.380Z,3.34
2019-03-13T06:22:09.922Z,3.49
2019-03-13T06:24:44.820Z,3.53
2019-03-13T06:27:19.973Z,3.73
2019-03-13T06:29:54.429Z,3.81
2019-03-13T06:32:29.319Z,3.81
2019-03-13T06:35:03.593Z,3.94
2019-03-13T06:37:35.998Z,3.98
2019-03-13T06:40:11.524Z,4.08
2019-03-13T06:42:46.294Z,4.23
2019-03-13T06:45:23.312Z,4.21
2019-03-13T06:47:58.011Z,4.37
2019-03-13T06:50:33.092Z,4.57
2019-03-13T06:53:07.813Z,4.65
2019-03-13T06:55:42.344Z,4.79
2019-03-13T06:58:19.140Z,4.90
2019-03-13T07:01:02.280Z,5.06
2019-03-13T07:04:01.494Z,5.15
2019-03-13T07:07:04.249Z,5.14
2019-03-13T07:09:51.580Z,5.22
2019-03-13T07:12:45.054Z,5.22
2019-03-13T07:15:47.588Z,5.37
2019-03-13T07:18:29.804Z,5.60
2019-03-13T07:21:23.611Z,5.69
2019-03-13T07:24:13.308Z,5.53
2019-03-13T07:27:03.392Z,5.91
2019-03-13T07:29:49.898Z,6.09
2019-03-13T07:32:46.366Z,6.25
2019-03-13T07:35:39.719Z,6.23
2019-03-13T07:38:40.639Z,6.28
2019-03-13T07:41:39.224Z,6.16
2019-03-13T07:44:32.557Z,6.16
2019-03-13T07:47:15.139Z,6.61
2019-03-13T07:50:02.220Z,6.78
2019-03-13T07:52:50.601Z,6.93
2019-03-13T07:55:37.396Z,6.83
2019-03-13T07:58:22.850Z,6.92
2019-03-13T08:01:24.178Z,6.90
2019-03-13T08:04:09.002Z,7.12
2019-03-13T08:07:03.226Z,7.17
2019-03-13T08:09:49.806Z,7.33
2019-03-13T08:12:52.707Z,7.38
2019-03-13T08:15:47.189Z,7.32
2019-03-13T08:18:43.189Z,7.53
2019-03-13T08:21:39.172Z,7.81
2019-03-13T08:24:33.241Z,7.87
2019-03-13T08:27:28.743Z,8.10
2019-03-13T08:30:36.434Z,8.25
2019-03-13T08:33:34.241Z,8.24
2019-03-13T08:36:18.772Z,8.11
2019-03-13T08:39:22.102Z,8.27
2019-03-13T08:42:15.562Z,8.06
2019-03-13T08:45:08.655Z,8.01
2019-03-13T08:47:58.469Z,8.14
2019-03-13T08:50:56.695Z,8.42
2019-03-13T08:53:56.425Z,8.59
2019-03-13T08:56:48.811Z,8.77
2019-03-13T08:59:33.706Z,8.85
2019-03-13T09:02:27.443Z,8.99
2019-03-13T09:05:13.229Z,8.74
2019-03-13T09:08:16.157Z,8.83
2019-03-13T09:11:26.482Z,8.77
2019-03-13T09:14:14.348Z,8.59
2019-03-13T09:17:12.856Z,8.33
2019-03-13T09:20:12.039Z,7.86
2019-03-13T09:23:11.910Z,8.07
2019-03-13T09:26:03.212Z,8.24
2019-03-13T09:28:57.611Z,8.50
2019-03-13T09:31:46.692Z,8.28
2019-03-13T09:34:49.245Z,8.40
2019-03-13T09:37:56.778Z,8.65
2019-03-13T09:41:10.447Z,9.13
2019-03-13T09:44:09.496Z,9.19
2019-03-13T09:47:05.985Z,9.37
2019-03-13T09:49:47.266Z,9.68
2019-03-13T09:52:40.786Z,9.82
2019-03-13T09:55:55.502Z,9.85
2019-03-13T09:58:50.918Z,10.28
2019-03-13T10:01:52.253Z,10.62
2019-03-13T10:05:03.282Z,10.77
2019-03-13T10:08:02.858Z,10.70
2019-03-13T10:10:58.143Z,10.80
2019-03-13T10:13:51.779Z,10.89
2019-03-13T10:16:41.373Z,11.00
2019-03-13T10:19:33.550Z,11.01
2019-03-13T10:22:15.389Z,10.96
2019-03-13T10:25:01.660Z,11.40
2019-03-13T10:27:56.527Z,11.42
2019-03-13T10:30:40.407Z,11.58
2019-03-13T10:33:28.755Z,11.61
2019-03-13T10:36:31.287Z,11.30
2019-03-13T10:39:28.199Z,11.61
2019-03-13T10:42:27.035Z,11.72
2019-03-13T10:45:12.110Z,11.72
2019-03-13T10:47:51.704Z,11.28
2019-03-13T10:50:33.925Z,11.04
2019-03-13T10:53:24.474Z,11.18
2019-03-13T10:56:19.925Z,10.73
2019-03-13T10:59:09.035Z,10.65
2019-03-13T11:01:57.605Z,10.62
2019-03-13T11:05:08.306Z,10.82
2019-03-13T11:08:03.946Z,11.01
2019-03-13T11:10:59.029Z,11.36
2019-03-13T11:13:53.551Z,11.38
2019-03-13T11:16:47.318Z,10.92
2019-03-13T11:19:31.126Z,10.68
2019-03-13T11:22:15.357Z,10.65
2019-03-13T11:25:00.773Z,10.71
2019-03-13T11:27:43.011Z,10.53
2019-03-13T11:30:37.308Z,10.79
2019-03-13T11:33:30.392Z,10.90
2019-03-13T11:36:24.046Z,10.79
2019-03-13T11:39:17.951Z,11.18
2019-03-13T11:42:15.413Z,10.68
2019-03-13T11:45:16.106Z,10.74
2019-03-13T11:48:26.618Z,11.17
2019-03-13T11:51:27.627Z,10.81
2019-03-13T11:54:32.011Z,10.64
2019-03-13T11:57:14.850Z,10.50
2019-03-13T12:00:16.121Z,10.64
2019-03-13T12:03:10.515Z,10.46
2019-03-13T12:06:12.340Z,10.80
2019-03-13T12:09:09.616Z,10.23
2019-03-13T12:12:02.470Z,10.24
2019-03-13T12:14:50.335Z,10.10
2019-03-13T12:17:43.546Z,9.66
2019-03-13T12:20:41.264Z,9.42
2019-03-13T12:23:20.402Z,9.33
2019-03-13T12:26:03.490Z,9.00
2019-03-13T12:29:03.578Z,8.83
2019-03-13T12:32:01.109Z,8.89
2019-03-13T12:34:59.913Z,9.10
2019-03-13T12:37:58.590Z,9.02
2019-03-13T12:40:39.172Z,8.46
2019-03-13T12:43:38.975Z,8.06
2019-03-13T12:46:29.616Z,8.13
2019-03-13T12:49:18.715Z,8.05
2019-03-13T12:52:24.651Z,8.22
2019-03-13T12:55:15.448Z,8.26
2019-03-13T12:58:04.734Z,8.04
2019-03-13T13:00:45.871Z,7.79
2019-03-13T13:03:34.486Z,7.78
2019-03-13T13:06:23.773Z,7.64
2019-03-13T13:09:26.228Z,7.28
2019-03-13T13:12:34.942Z,7.05
2019-03-13T13:15:20.829Z,6.99
2019-03-13T13:18:11.415Z,7.01
2019-03-13T13:20:43.637Z,6.94
2019-03-13T13:23:15.489Z,6.91
2019-03-13T13:25:47.409Z,6.82
2019-03-13T13:28:19.137Z,6.88
2019-03-13T13:30:50.749Z,6.97
2019-03-13T13:33:22.458Z,6.79
2019-03-13T13:35:54.199Z,6.73
2019-03-13T13:38:26.016Z,6.55
2019-03-13T13:40:59.074Z,6.54
2019-03-13T13:43:30.895Z,6.66
2019-03-13T13:46:12.164Z,6.57
2019-03-13T13:48:43.932Z,6.41
2019-03-13T13:51:15.680Z,6.37
2019-03-13T13:53:47.823Z,6.43
2019-03-13T13:56:19.506Z,6.30
2019-03-13T13:58:51.203Z,6.40
2019-03-13T14:01:24.022Z,6.35
2019-03-13T14:03:55.683Z,6.27
2019-03-13T14:06:27.536Z,6.25
2019-03-13T14:09:01.312Z,6.27
2019-03-13T14:11:34.478Z,6.16
2019-03-13T14:14:06.162Z,6.11
2019-03-13T14:16:37.957Z,6.12
2019-03-13T14:19:09.812Z,6.03
2019-03-13T14:21:41.532Z,6.05
2019-03-13T14:24:13.293Z,6.05
2019-03-13T14:26:45.012Z,6.02
2019-03-13T14:29:18.162Z,5.92
2019-03-13T14:31:50.250Z,5.78
2019-03-13T14:34:22.012Z,5.82
2019-03-13T14:36:53.802Z,5.79
2019-03-13T14:39:25.622Z,5.71
2019-03-13T14:41:57.488Z,5.66
2019-03-13T14:44:29.189Z,5.59
2019-03-13T14:47:00.731Z,5.62
2019-03-13T14:49:32.353Z,5.52
2019-03-13T14:52:04.008Z,5.44
2019-03-13T14:54:36.533Z,5.40
2019-03-13T14:57:08.402Z,5.36
2019-03-13T14:59:43.232Z,5.37
2019-03-13T15:02:14.980Z,5.28
2019-03-13T15:04:48.105Z,5.33
2019-03-13T15:07:21.366Z,5.23
2019-03-13T15:09:53.075Z,5.37
2019-03-13T15:12:24.810Z,5.32
2019-03-13T15:14:56.563Z,5.41
2019-03-13T15:17:28.301Z,5.36
2019-03-13T15:19:59.984Z,5.33
2019-03-13T15:22:31.620Z,5.39
2019-03-13T15:25:03.772Z,5.49
2019-03-13T15:27:37.352Z,5.35
2019-03-13T15:30:12.924Z,5.40
2019-03-13T15:32:44.810Z,5.40
2019-03-13T15:35:16.590Z,5.22
2019-03-13T15:37:48.387Z,5.13
2019-03-13T15:40:21.403Z,5.03
2019-03-13T15:42:53.242Z,4.99
2019-03-13T15:45:25.035Z,4.95
2019-03-13T15:47:56.813Z,4.97
2019-03-13T15:50:28.516Z,4.92
2019-03-13T15:53:00.173Z,4.84
2019-03-13T15:55:32.060Z,4.79
2019-03-13T15:58:03.705Z,4.74
2019-03-13T16:00:37.923Z,4.66
2019-03-13T16:03:09.828Z,4.58
2019-03-13T16:05:41.612Z,4.42
2019-03-13T16:08:13.381Z,4.21
2019-03-13T16:10:45.307Z,4.28
2019-03-13T16:13:18.762Z,4.24
2019-03-13T16:15:50.542Z,4.19
2019-03-13T16:18:22.473Z,4.12
2019-03-13T16:20:54.432Z,4.13
2019-03-13T16:23:27.914Z,4.29
2019-03-13T16:26:00.310Z,4.28
2019-03-13T16:28:32.302Z,4.22
2019-03-13T16:31:05.062Z,4.11
2019-03-13T16:33:36.922Z,4.16
2019-03-13T16:36:08.649Z,4.29
2019-03-13T16:38:40.492Z,4.32
2019-03-13T16:41:12.254Z,4.36
2019-03-13T16:43:45.419Z,4.40
2019-03-13T16:46:17.250Z,4.44
2019-03-13T16:48:49.038Z,4.51
2019-03-13T16:51:21.133Z,4.63
2019-03-13T16:53:52.967Z,4.56
2019-03-13T16:56:24.879Z,4.61
2019-03-13T16:58:56.842Z,4.56
2019-03-13T17:01:28.654Z,4.36
2019-03-13T17:04:00.461Z,4.13
2019-03-13T17:06:32.302Z,4.04
2019-03-13T17:09:04.463Z,3.79
2019-03-13T17:11:37.800Z,3.69
2019-03-13T17:14:09.608Z,3.73
2019-03-13T17:16:41.444Z,3.75
2019-03-13T17:19:14.008Z,3.80
2019-03-13T17:21:45.798Z,3.83
2019-03-13T17:24:17.559Z,3.64
2019-03-13T17:26:49.578Z,3.51
2019-03-13T17:29:21.361Z,3.53
2019-03-13T17:31:53.162Z,3.48
2019-03-13T17:34:25.044Z,3.43
2019-03-13T17:36:56.722Z,3.43
2019-03-13T17:39:28.500Z,3.39
2019-03-13T17:42:00.321Z,3.27
2019-03-13T17:44:32.274Z,3.32
2019-03-13T17:47:04.269Z,3.24
2019-03-13T17:49:36.081Z,3.30
2019-03-13T17:52:09.359Z,3.28
2019-03-13T17:54:41.203Z,3.25
2019-03-13T17:57:12.931Z,3.27
2019-03-13T17:59:44.846Z,3.34
2019-03-13T18:02:16.628Z,3.40
2019-03-13T18:04:48.518Z,3.44
2019-03-13T18:07:20.158Z,3.50
2019-03-13T18:09:52.049Z,3.57
2019-03-13T18:12:24.329Z,3.65
2019-03-13T18:14:56.136Z,3.61
2019-03-13T18:17:27.901Z,3.67
2019-03-13T18:19:59.720Z,3.73
2019-03-13T18:22:31.379Z,3.80
2019-03-13T18:25:03.139Z,3.84
2019-03-13T18:27:34.853Z,3.91
2019-03-13T18:30:08.244Z,3.93
2019-03-13T18:32:41.933Z,3.98
2019-03-13T18:35:13.861Z,4.02
2019-03-13T18:37:47.005Z,3.93
2019-03-13T18:40:21.976Z,3.99
2019-03-13T18:42:54.039Z,4.02
2019-03-13T18:45:26.626Z,4.04
2019-03-13T18:48:07.078Z,4.05
2019-03-13T18:50:38.792Z,3.99
2019-03-13T18:53:10.371Z,3.91
2019-03-13T18:55:42.064Z,3.97
2019-03-13T18:58:14.268Z,4.01
2019-03-13T19:00:46.515Z,3.97
2019-03-13T19:03:18.398Z,4.00
2019-03-13T19:05:50.262Z,3.92
2019-03-13T19:08:21.820Z,3.93
2019-03-13T19:10:53.511Z,3.99
2019-03-13T19:13:26.320Z,3.79
2019-03-13T19:15:57.990Z,3.72
2019-03-13T19:18:29.713Z,3.67
2019-03-13T19:21:01.424Z,3.64
2019-03-13T19:23:33.115Z,3.56
2019-03-13T19:26:04.772Z,3.42
2019-03-13T19:28:36.423Z,3.25
2019-03-13T19:31:08.281Z,3.31
2019-03-13T19:33:40.120Z,3.26
2019-03-13T19:36:11.940Z,3.22
2019-03-13T19:38:43.606Z,3.24
2019-03-13T19:41:15.361Z,3.24
2019-03-13T19:43:47.228Z,3.21
2019-03-13T19:46:19.040Z,3.18
2019-03-13T19:48:50.891Z,3.23
2019-03-13T19:51:22.574Z,3.25
2019-03-13T19:53:54.350Z,3.20
2019-03-13T19:56:26.111Z,3.27
2019-03-13T19:58:58.008Z,3.24
2019-03-13T20:01:29.817Z,3.29
2019-03-13T20:04:01.456Z,3.29
2019-03-13T20:06:42.151Z,3.26
2019-03-13T20:09:09.213Z,3.24
2019-03-13T20:11:41.765Z,3.29
2019-03-13T20:14:14.914Z,3.24
2019-03-13T20:16:46.837Z,3.16
2019-03-13T20:19:18.715Z,3.02
2019-03-13T20:21:50.426Z,3.05
2019-03-13T20:24:22.285Z,3.04
2019-03-13T20:26:54.212Z,3.02
2019-03-13T20:29:26.074Z,3.16
2019-03-13T20:31:58.255Z,3.20
2019-03-13T20:34:30.201Z,3.15
2019-03-13T20:37:02.013Z,3.17
2019-03-13T20:39:33.911Z,3.18
2019-03-13T20:42:05.763Z,3.16
2019-03-13T20:44:37.743Z,3.18
2019-03-13T20:47:09.603Z,3.20
2019-03-13T20:49:41.452Z,3.17
2019-03-13T20:52:15.864Z,3.03
2019-03-13T20:54:47.663Z,3.12
2019-03-13T20:57:19.482Z,3.23
2019-03-13T20:59:51.319Z,3.30
2019-03-13T21:02:25.545Z,3.26
2019-03-13T21:04:57.353Z,3.20
2019-03-13T21:07:29.269Z,3.19
2019-03-13T21:10:01.252Z,3.20
2019-03-13T21:12:36.783Z,3.18
2019-03-13T21:15:08.731Z,3.05
2019-03-13T21:17:40.650Z,3.02
2019-03-13T21:20:13.708Z,2.99
2019-03-13T21:22:45.605Z,3.02
2019-03-13T21:25:17.913Z,3.06
2019-03-13T21:27:49.565Z,2.94
2019-03-13T21:30:23.149Z,3.02
2019-03-13T21:32:56.353Z,3.05
2019-03-13T21:35:28.453Z,2.99
2019-03-13T21:38:00.432Z,3.04
2019-03-13T21:40:32.705Z,3.07
2019-03-13T21:43:04.628Z,2.98
2019-03-13T21:45:41.490Z,3.06
2019-03-13T21:48:09.908Z,3.12
2019-03-13T21:50:41.708Z,3.11
2019-03-13T21:53:13.598Z,3.13
2019-03-13T21:55:45.428Z,3.06
2019-03-13T21:58:17.152Z,2.91
2019-03-13T22:00:48.790Z,2.90
2019-03-13T22:03:28.371Z,2.84
2019-03-13T22:05:55.179Z,2.84
2019-03-13T22:08:26.948Z,2.92
2019-03-13T22:10:58.698Z,2.99
2019-03-13T22:13:32.226Z,3.02
2019-03-13T22:16:07.129Z,3.02
2019-03-13T22:18:39.957Z,3.02
2019-03-13T22:21:14.460Z,3.01
2019-03-13T22:23:47.671Z,2.99
2019-03-13T22:26:19.426Z,3.00
2019-03-13T22:28:51.341Z,3.07
2019-03-13T22:31:23.109Z,3.06
2019-03-13T22:33:55.053Z,3.06
2019-03-13T22:36:28.058Z,3.07
2019-03-13T22:39:01.533Z,3.09
2019-03-13T22:41:36.655Z,3.09
2019-03-13T22:44:08.301Z,3.13
2019-03-13T22:46:40.082Z,3.06
2019-03-13T22:49:12.012Z,3.05
2019-03-13T22:51:43.860Z,3.05
2019-03-13T22:54:15.623Z,3.04
2019-03-13T22:56:49.657Z,3.01
2019-03-13T22:59:22.363Z,3.00
2019-03-13T23:01:54.270Z,2.92
2019-03-13T23:04:26.365Z,2.90
2019-03-13T23:06:58.226Z,2.93
2019-03-13T23:09:30.077Z,2.94
2019-03-13T23:12:01.881Z,2.80
2019-03-13T23:14:33.548Z,2.82
2019-03-13T23:17:05.980Z,2.84
2019-03-13T23:19:37.668Z,2.80
2019-03-13T23:22:09.452Z,2.79
2019-03-13T23:24:41.161Z,2.77
2019-03-13T23:27:12.885Z,2.80
2019-03-13T23:29:44.611Z,2.71
2019-03-13T23:32:16.384Z,2.67
2019-03-13T23:34:47.930Z,2.67
2019-03-13T23:37:19.537Z,2.66
2019-03-13T23:39:51.248Z,2.65
2019-03-13T23:42:22.930Z,2.70
2019-03-13T23:44:55.138Z,2.73
2019-03-13T23:47:26.918Z,2.78
2019-03-13T23:50:00.262Z,2.80
2019-03-13T23:52:32.193Z,2.86
2019-03-13T23:55:05.519Z,2.93
2019-03-13T23:57:37.800Z,2.96
